Latest Weather Observations for Hillarys Point Boat Harbour

IDW60901

Issued at 9:41 pm WST Friday 3 July 2015 (issued every 10 minutes, with the page automatically refreshed every 10 minutes)

About weather observations | Map of Perth area stations | Latest observations for Perth area | Other Formats
Station Details ID: 009265 Name: HILLARYS BOAT HARBOUR NTC AWS Lat: -31.83 Lon: 115.74 Height: 0.0 m
Data from the previous 72 hours. | See also: Recent months for locations in Western Australia
Date/Time
WST
Tmp

°C
App
Tmp
°C
Dew
Point
°C
Rel
Hum
%
Delta-T

°C
Wind Press
QNH
hPa
Press
MSL
hPa
Rain
since
9 am
mm
Dir
 
Spd
km/h
Gust
km/h
Spd
kts
Gust
kts
03/09:30pm 16.1 - - - - ENE 4 6 2 3 1022.8 1022.8 -
03/09:00pm 16.1 - - - - ENE 4 4 2 2 1022.7 1022.7 -
03/08:30pm 16.5 - - - - ENE 4 4 2 2 1022.6 1022.6 -
03/08:00pm 18.5 - - - - SW 4 6 2 3 1022.7 1022.7 -
03/07:30pm 18.6 - - - - SW 6 7 3 4 1022.6 1022.6 -
03/07:00pm 18.7 - - - - SW 6 9 3 5 1022.4 1022.4 -
03/06:30pm 18.8 - - - - WSW 7 9 4 5 1022.5 1022.5 -
03/06:00pm 18.8 - - - - WSW 6 9 3 5 1022.3 1022.3 -
03/05:30pm 18.0 - - - - N 2 2 1 1 1022.0 1022.0 -
03/05:00pm 18.5 - - - - NW 4 6 2 3 1022.1 1022.1 -
03/04:30pm 19.1 - - - - WNW 4 6 2 3 1021.9 1021.9 -
03/04:00pm 18.9 - - - - WSW 4 6 2 3 1021.6 1021.6 -
03/03:30pm 19.2 - - - - W 4 7 2 4 1021.5 1021.5 -
03/03:00pm 18.6 - - - - W 7 11 4 6 1021.3 1021.3 -
03/02:30pm 19.0 - - - - W 9 13 5 7 1021.4 1021.4 -
03/02:00pm 18.9 - - - - W 7 11 4 6 1021.5 1021.5 -
03/01:30pm 19.0 - - - - W 4 7 2 4 1021.4 1021.4 -
03/01:00pm 19.0 - - - - WNW 4 7 2 4 1021.6 1021.6 -
03/12:30pm 18.8 - - - - NW 6 9 3 5 1021.8 1021.8 -
03/12:00pm 18.5 - - - - NW 6 9 3 5 1022.2 1022.2 -
03/11:30am 17.7 - - - - NW 6 9 3 5 1022.5 1022.5 -
03/11:00am 18.8 - - - - N 4 7 2 4 1022.6 1022.6 -
03/10:30am 17.2 - - - - NNW 6 9 3 5 1022.9 1022.9 -
03/10:00am 17.3 - - - - NNE 6 9 3 5 1022.8 1022.8 -
03/09:30am 15.8 - - - - ENE 6 9 3 5 1022.6 1022.6 -
03/09:00am 15.4 - - - - NE 6 9 3 5 1022.4 1022.4 -
03/08:30am 15.3 - - - - NE 6 9 3 5 1022.2 1022.2 -
03/08:00am 15.0 - - - - NE 6 7 3 4 1022.0 1022.0 -
03/07:30am 14.5 - - - - NE 7 9 4 5 1021.7 1021.7 -
03/07:00am 14.5 - - - - NE 6 9 3 5 1021.4 1021.4 -
03/06:30am 14.3 - - - - NE 6 9 3 5 1021.1 1021.1 -
03/06:00am 14.6 - - - - NE 7 9 4 5 1020.7 1020.7 -
03/05:30am 14.7 - - - - NE 7 11 4 6 1020.6 1020.6 -
03/05:00am 14.9 - - - - NE 6 9 3 5 1020.3 1020.3 -
03/04:30am 14.8 - - - - ENE 6 9 3 5 1020.6 1020.6 -
03/04:00am 14.9 - - - - NE 6 13 3 7 1020.6 1020.6 -
03/03:30am 14.7 - - - - NE 6 11 3 6 1020.7 1020.7 -
03/03:00am 14.7 - - - - NE 4 7 2 4 1020.9 1020.9 -
03/02:30am 14.6 - - - - NE 6 13 3 7 1021.0 1021.0 -
03/02:00am 14.7 - - - - NNE 7 13 4 7 1021.0 1021.0 -
03/01:30am 14.9 - - - - NNE 7 13 4 7 1021.2 1021.2 -
03/01:00am 14.9 - - - - NNE 6 9 3 5 1021.3 1021.3 -
03/12:30am 15.3 - - - - NNE 9 15 5 8 1021.3 1021.3 -
03/12:00am 15.3 - - - - NNE 9 15 5 8 1021.5 1021.5 -
 
Date/Time
WST
Tmp

°C
App
Tmp
°C
Dew
Point
°C
Rel
Hum
%
Delta-T

°C
Wind Press
QNH
hPa
Press
MSL
hPa
Rain
since
9 am
mm
Dir
 
Spd
km/h
Gust
km/h
Spd
kts
Gust
kts
02/11:30pm 15.5 - - - - NNE 9 11 5 6 1021.7 1021.7 -
02/11:00pm 15.3 - - - - NNE 9 15 5 8 1021.7 1021.7 -
02/10:30pm 15.1 - - - - NNE 7 11 4 6 1022.0 1022.0 -
02/10:00pm 15.4 - - - - NNE 7 11 4 6 1022.1 1022.1 -
02/09:30pm 15.6 - - - - NNE 7 13 4 7 1022.0 1022.0 -
02/09:00pm 15.8 - - - - N 6 13 3 7 1022.1 1022.1 -
02/08:30pm 16.0 - - - - N 9 13 5 7 1022.0 1022.0 -
02/08:00pm 16.1 - - - - N 11 19 6 10 1022.0 1022.0 -
02/07:30pm 16.3 - - - - N 9 15 5 8 1021.8 1021.8 -
02/07:00pm 17.3 - - - - N 9 13 5 7 1021.9 1021.9 -
02/06:30pm 18.1 - - - - NNE 7 11 4 6 1021.1 1021.1 -
02/06:00pm 18.1 - - - - NNE 4 7 2 4 1020.9 1020.9 -
02/05:30pm 18.4 - - - - NE 2 4 1 2 1020.8 1020.8 -
02/05:00pm 18.5 - - - - N 6 9 3 5 1020.5 1020.5 -
02/04:30pm 19.1 - - - - N 6 7 3 4 1020.5 1020.5 -
02/04:00pm 19.7 - - - - N 7 11 4 6 1020.3 1020.3 -
02/03:30pm 19.9 - - - - N 7 13 4 7 1020.2 1020.2 -
02/03:00pm 20.2 - - - - N 9 15 5 8 1020.2 1020.2 -
02/02:30pm 20.4 - - - - N 11 19 6 10 1020.2 1020.2 -
02/02:00pm 19.8 - - - - N 11 17 6 9 1020.5 1020.5 -
02/01:30pm 19.0 - - - - NNE 9 15 5 8 1020.6 1020.6 -
02/01:00pm 18.7 - - - - NNE 11 20 6 11 1020.7 1020.7 -
02/12:30pm 18.1 - - - - NE 7 15 4 8 1021.4 1021.4 -
02/12:00pm 17.8 - - - - NNE 13 20 7 11 1021.9 1021.9 -
02/11:30am 17.6 - - - - NNE 11 22 6 12 1022.1 1022.1 -
02/11:00am 17.4 - - - - NE 7 15 4 8 1022.2 1022.2 -
02/10:30am 16.6 - - - - NE 9 20 5 11 1022.6 1022.6 -
02/10:00am 16.3 - - - - ENE 13 20 7 11 1022.4 1022.4 -
02/09:30am 16.1 - - - - ENE 15 24 8 13 1022.2 1022.2 -
02/09:00am 15.8 - - - - ENE 15 22 8 12 1022.0 1022.0 -
02/08:30am 15.5 - - - - ENE 15 22 8 12 1022.1 1022.1 -
02/08:00am 15.3 - - - - ENE 13 22 7 12 1022.1 1022.1 -
02/07:30am 15.8 - - - - ENE 13 20 7 11 1022.1 1022.1 -
02/07:00am 14.9 - - - - ENE 13 19 7 10 1021.5 1021.5 -
02/06:30am 14.7 - - - - ENE 11 19 6 10 1021.4 1021.4 -
02/06:00am 14.7 - - - - ENE 13 20 7 11 1021.3 1021.3 -
02/05:30am 14.7 - - - - ENE 13 19 7 10 1021.0 1021.0 -
02/05:00am 14.8 - - - - ENE 13 19 7 10 1021.1 1021.1 -
02/04:30am 15.0 - - - - ENE 11 17 6 9 1021.5 1021.5 -
02/04:00am 15.1 - - - - ENE 13 20 7 11 1021.6 1021.6 -
02/03:30am 15.1 - - - - ENE 9 15 5 8 1022.6 1022.6 -
02/03:00am 15.0 - - - - NE 7 15 4 8 1023.0 1023.0 -
02/02:30am 15.0 - - - - ENE 11 17 6 9 1022.6 1022.6 -
02/02:00am 14.8 - - - - ENE 11 20 6 11 1021.8 1021.8 -
02/01:30am 14.7 - - - - E 11 20 6 11 1021.9 1021.9 -
02/01:00am 14.7 - - - - ENE 11 19 6 10 1022.6 1022.6 -
02/12:30am 14.6 - - - - ESE 4 7 2 4 1023.3 1023.3 -
02/12:00am 15.0 - - - - ENE 4 9 2 5 1023.5 1023.5 -
 
Date/Time
WST
Tmp

°C
App
Tmp
°C
Dew
Point
°C
Rel
Hum
%
Delta-T

°C
Wind Press
QNH
hPa
Press
MSL
hPa
Rain
since
9 am
mm
Dir
 
Spd
km/h
Gust
km/h
Spd
kts
Gust
kts
01/11:30pm 14.8 - - - - E 4 6 2 3 1022.8 1022.8 -
01/11:00pm 15.0 - - - - ENE 4 7 2 4 1023.4 1023.4 -
01/10:30pm 14.9 - - - - ENE 4 11 2 6 1023.5 1023.5 -
01/10:00pm 14.6 - - - - ENE 9 15 5 8 1023.6 1023.6 -
01/09:30pm 14.8 - - - - NE 6 7 3 4 1024.6 1024.6 -
01/09:00pm 15.0 - - - - ENE 7 11 4 6 1024.0 1024.0 -
01/08:30pm 15.1 - - - - N 4 6 2 3 1024.4 1024.4 -
01/08:00pm 15.4 - - - - SE 2 4 1 2 1023.9 1023.9 -
01/07:30pm 15.5 - - - - ENE 6 9 3 5 1023.7 1023.7 -
01/07:00pm 16.0 - - - - NE 7 15 4 8 1023.5 1023.5 -
01/06:30pm 16.2 - - - - NE 6 11 3 6 1023.1 1023.1 -
01/06:00pm 17.2 - - - - NNE 11 17 6 9 1023.4 1023.4 -
01/05:30pm 17.6 - - - - N 7 15 4 8 1023.6 1023.6 -
01/05:00pm 17.9 - - - - N 7 13 4 7 1023.6 1023.6 -
01/04:30pm 18.0 - - - - NNE 7 13 4 7 1023.4 1023.4 -
01/04:00pm 17.9 - - - - NNE 7 9 4 5 1023.5 1023.5 -
01/03:30pm 17.7 - - - - NNE 6 7 3 4 1023.3 1023.3 -
01/03:00pm 17.4 - - - - N 7 13 4 7 1022.8 1022.8 -
01/02:30pm 18.8 - - - - NNW 6 13 3 7 1023.0 1023.0 -
01/02:00pm 18.9 - - - - NNW 4 7 2 4 1022.7 1022.7 -
01/01:30pm 19.4 - - - - N 4 7 2 4 1022.6 1022.6 -
01/01:00pm 19.3 - - - - N 6 9 3 5 1022.5 1022.5 -
01/12:30pm 19.3 - - - - N 6 11 3 6 1023.0 1023.0 -
01/12:00pm 19.1 - - - - NNE 6 11 3 6 1023.1 1023.1 -
01/11:30am 19.0 - - - - NNE 7 13 4 7 1023.3 1023.3 -
01/11:00am 18.8 - - - - NNE 9 17 5 9 1023.4 1023.4 -
01/10:30am 18.4 - - - - NE 7 13 4 7 1023.7 1023.7 -
01/10:00am 18.2 - - - - ENE 7 13 4 7 1023.7 1023.7 -
01/09:30am 18.0 - - - - NE 7 13 4 7 1023.7 1023.7 -
01/09:00am 16.1 - - - - ENE 11 19 6 10 1023.2 1023.2 -
01/08:30am 15.9 - - - - NE 6 11 3 6 1023.4 1023.4 -
01/08:00am 15.6 - - - - NE 7 11 4 6 1023.4 1023.4 -
01/07:30am 15.3 - - - - ENE 7 11 4 6 1023.2 1023.2 -
01/07:00am 15.6 - - - - NE 6 11 3 6 1022.8 1022.8 -
01/06:30am 15.5 - - - - NE 7 11 4 6 1022.6 1022.6 -
01/06:00am 15.7 - - - - ENE 6 13 3 7 1022.2 1022.2 -
01/05:30am 15.8 - - - - NE 7 11 4 6 1022.3 1022.3 -
01/05:00am 15.7 - - - - NE 6 9 3 5 1022.3 1022.3 -
01/04:30am 15.6 - - - - NE 7 13 4 7 1022.0 1022.0 -
01/04:00am 15.5 - - - - NE 7 13 4 7 1022.0 1022.0 -
01/03:30am 15.6 - - - - ENE 6 9 3 5 1022.2 1022.2 -
01/03:00am 16.3 - - - - NE 6 9 3 5 1022.7 1022.7 -
01/02:30am 16.7 - - - - NE 9 15 5 8 1022.8 1022.8 -
01/02:00am 17.0 - - - - ENE 6 9 3 5 1022.2 1022.2 -
01/01:30am 17.4 - - - - NNE 7 11 4 6 1022.4 1022.4 -
01/01:00am 17.6 - - - - NNE 9 15 5 8 1022.9 1022.9 -
01/12:30am 17.3 - - - - NNE 9 13 5 7 1022.9 1022.9 -
01/12:00am 17.2 - - - - NNE 6 9 3 5 1022.8 1022.8 -
 
Date/Time
WST
Tmp

°C
App
Tmp
°C
Dew
Point
°C
Rel
Hum
%
Delta-T

°C
Wind Press
QNH
hPa
Press
MSL
hPa
Rain
since
9 am
mm
Dir
 
Spd
km/h
Gust
km/h
Spd
kts
Gust
kts
30/11:30pm 17.0 - - - - NE 7 11 4 6 1022.9 1022.9 -
30/11:00pm 17.3 - - - - NNE 7 9 4 5 1022.5 1022.5 -
30/10:30pm 17.3 - - - - NE 7 11 4 6 1021.9 1021.9 -
30/10:00pm 17.4 - - - - NNE 6 11 3 6 1023.0 1023.0 -

Latest Capital City Observations: Canberra | Sydney | Melbourne | Brisbane | Adelaide | Perth | Hobart | Darwin

Other Formats:

Comma delimited format used in spreadsheet applications
http://www.bom.gov.au/fwo/IDW60901/IDW60901.95605.axf

JavaScript Object Notation format (JSON) in row-major order
http://www.bom.gov.au/fwo/IDW60901/IDW60901.95605.json